sensor_id;sensor_type;location;lat;lon;timestamp;temperature;humidity
69054;DHT22;56125;52.242;4.756;2024-02-14T00:01:33;18.10;54.20
69054;DHT22;56125;52.242;4.756;2024-02-14T00:06:37;18.10;53.40
69054;DHT22;56125;52.242;4.756;2024-02-14T00:11:38;18.10;53.40
69054;DHT22;56125;52.242;4.756;2024-02-14T00:16:39;18.10;53.50
69054;DHT22;56125;52.242;4.756;2024-02-14T00:21:40;18.10;53.70
69054;DHT22;56125;52.242;4.756;2024-02-14T00:26:41;18.10;53.60
69054;DHT22;56125;52.242;4.756;2024-02-14T00:31:42;17.50;53.30
69054;DHT22;56125;52.242;4.756;2024-02-14T00:36:45;18.00;53.60
69054;DHT22;56125;52.242;4.756;2024-02-14T00:41:47;18.00;53.60
69054;DHT22;56125;52.242;4.756;2024-02-14T00:46:48;18.00;53.70
69054;DHT22;56125;52.242;4.756;2024-02-14T00:51:49;18.90;54.30
69054;DHT22;56125;52.242;4.756;2024-02-14T00:56:50;18.00;53.80
69054;DHT22;56125;52.242;4.756;2024-02-14T01:01:52;18.00;53.70
69054;DHT22;56125;52.242;4.756;2024-02-14T01:06:53;18.00;53.90
69054;DHT22;56125;52.242;4.756;2024-02-14T01:11:54;18.00;54.10
69054;DHT22;56125;52.242;4.756;2024-02-14T01:16:55;18.00;54.10
69054;DHT22;56125;52.242;4.756;2024-02-14T01:21:57;18.00;54.20
69054;DHT22;56125;52.242;4.756;2024-02-14T01:26:58;18.00;54.30
69054;DHT22;56125;52.242;4.756;2024-02-14T01:31:59;18.00;54.40
69054;DHT22;56125;52.242;4.756;2024-02-14T01:37:00;18.00;54.30
69054;DHT22;56125;52.242;4.756;2024-02-14T01:42:01;18.00;54.50
69054;DHT22;56125;52.242;4.756;2024-02-14T01:47:07;18.00;54.50
69054;DHT22;56125;52.242;4.756;2024-02-14T01:52:08;17.90;54.50
69054;DHT22;56125;52.242;4.756;2024-02-14T01:57:10;17.90;54.60
69054;DHT22;56125;52.242;4.756;2024-02-14T02:02:12;18.10;54.90
69054;DHT22;56125;52.242;4.756;2024-02-14T02:07:14;17.90;54.70
69054;DHT22;56125;52.242;4.756;2024-02-14T02:12:15;18.00;54.90
69054;DHT22;56125;52.242;4.756;2024-02-14T02:17:16;18.00;54.90
69054;DHT22;56125;52.242;4.756;2024-02-14T02:22:18;17.90;54.90
69054;DHT22;56125;52.242;4.756;2024-02-14T02:27:19;18.00;55.10
69054;DHT22;56125;52.242;4.756;2024-02-14T02:32:20;17.90;55.00
69054;DHT22;56125;52.242;4.756;2024-02-14T02:37:22;17.90;55.10
69054;DHT22;56125;52.242;4.756;2024-02-14T02:42:23;17.90;55.10
69054;DHT22;56125;52.242;4.756;2024-02-14T02:47:24;17.90;55.10
69054;DHT22;56125;52.242;4.756;2024-02-14T02:52:25;17.90;55.30
69054;DHT22;56125;52.242;4.756;2024-02-14T02:57:26;17.90;55.20
69054;DHT22;56125;52.242;4.756;2024-02-14T03:02:27;17.90;55.10
69054;DHT22;56125;52.242;4.756;2024-02-14T03:07:28;17.90;55.40
69054;DHT22;56125;52.242;4.756;2024-02-14T03:12:29;17.90;55.40
69054;DHT22;56125;52.242;4.756;2024-02-14T03:17:32;17.90;55.40
69054;DHT22;56125;52.242;4.756;2024-02-14T03:22:33;17.70;55.50
69054;DHT22;56125;52.242;4.756;2024-02-14T03:27:34;17.90;55.60
69054;DHT22;56125;52.242;4.756;2024-02-14T03:32:36;17.90;55.70
69054;DHT22;56125;52.242;4.756;2024-02-14T03:37:37;17.90;55.60
69054;DHT22;56125;52.242;4.756;2024-02-14T03:42:40;17.90;55.50
69054;DHT22;56125;52.242;4.756;2024-02-14T03:47:41;17.90;55.90
69054;DHT22;56125;52.242;4.756;2024-02-14T03:52:42;17.90;55.80
69054;DHT22;56125;52.242;4.756;2024-02-14T03:57:43;17.90;55.80
69054;DHT22;56125;52.242;4.756;2024-02-14T04:02:46;17.90;55.80
69054;DHT22;56125;52.242;4.756;2024-02-14T04:07:49;17.90;55.90
69054;DHT22;56125;52.242;4.756;2024-02-14T04:12:53;17.90;56.00
69054;DHT22;56125;52.242;4.756;2024-02-14T04:17:54;17.90;55.90
69054;DHT22;56125;52.242;4.756;2024-02-14T04:22:55;17.90;56.10
69054;DHT22;56125;52.242;4.756;2024-02-14T04:27:56;17.90;56.00
69054;DHT22;56125;52.242;4.756;2024-02-14T04:32:57;17.90;56.10
69054;DHT22;56125;52.242;4.756;2024-02-14T04:37:59;17.90;56.10
69054;DHT22;56125;52.242;4.756;2024-02-14T04:43:00;17.80;56.10
69054;DHT22;56125;52.242;4.756;2024-02-14T04:48:01;17.60;56.10
69054;DHT22;56125;52.242;4.756;2024-02-14T04:53:02;17.90;56.20
69054;DHT22;56125;52.242;4.756;2024-02-14T04:58:03;17.90;56.20
69054;DHT22;56125;52.242;4.756;2024-02-14T05:03:06;17.60;56.00
69054;DHT22;56125;52.242;4.756;2024-02-14T05:08:07;17.90;56.30
69054;DHT22;56125;52.242;4.756;2024-02-14T05:13:08;17.90;56.30
69054;DHT22;56125;52.242;4.756;2024-02-14T05:18:09;17.90;56.30
69054;DHT22;56125;52.242;4.756;2024-02-14T05:23:10;17.90;56.30
69054;DHT22;56125;52.242;4.756;2024-02-14T05:28:12;17.50;56.10
69054;DHT22;56125;52.242;4.756;2024-02-14T05:33:14;17.90;56.50
69054;DHT22;56125;52.242;4.756;2024-02-14T05:38:16;17.90;56.40
69054;DHT22;56125;52.242;4.756;2024-02-14T05:43:17;17.90;56.40
69054;DHT22;56125;52.242;4.756;2024-02-14T05:48:19;18.00;56.50
69054;DHT22;56125;52.242;4.756;2024-02-14T05:53:20;17.90;56.30
69054;DHT22;56125;52.242;4.756;2024-02-14T05:58:21;18.00;56.60
69054;DHT22;56125;52.242;4.756;2024-02-14T06:03:23;19.00;57.00
69054;DHT22;56125;52.242;4.756;2024-02-14T06:08:24;18.00;56.40
69054;DHT22;56125;52.242;4.756;2024-02-14T06:13:25;18.00;56.60
69054;DHT22;56125;52.242;4.756;2024-02-14T06:18:26;18.00;56.50
69054;DHT22;56125;52.242;4.756;2024-02-14T06:23:27;18.00;56.60
69054;DHT22;56125;52.242;4.756;2024-02-14T06:28:28;18.00;56.20
69054;DHT22;56125;52.242;4.756;2024-02-14T06:33:29;18.00;56.60
69054;DHT22;56125;52.242;4.756;2024-02-14T06:38:33;18.00;56.10
69054;DHT22;56125;52.242;4.756;2024-02-14T06:43:34;18.00;56.70
69054;DHT22;56125;52.242;4.756;2024-02-14T06:48:37;17.80;56.30
69054;DHT22;56125;52.242;4.756;2024-02-14T06:53:38;18.00;56.90
69054;DHT22;56125;52.242;4.756;2024-02-14T06:58:39;18.00;56.40
69054;DHT22;56125;52.242;4.756;2024-02-14T07:03:40;18.00;56.60
69054;DHT22;56125;52.242;4.756;2024-02-14T07:08:41;18.00;56.60
69054;DHT22;56125;52.242;4.756;2024-02-14T07:13:42;18.00;56.90
69054;DHT22;56125;52.242;4.756;2024-02-14T07:18:43;18.00;56.70
69054;DHT22;56125;52.242;4.756;2024-02-14T07:23:44;18.00;56.40
69054;DHT22;56125;52.242;4.756;2024-02-14T07:28:46;18.00;56.50
69054;DHT22;56125;52.242;4.756;2024-02-14T07:33:47;18.10;56.60
69054;DHT22;56125;52.242;4.756;2024-02-14T07:38:48;18.00;56.50
69054;DHT22;56125;52.242;4.756;2024-02-14T07:43:50;18.10;56.80
69054;DHT22;56125;52.242;4.756;2024-02-14T07:48:51;18.10;56.20
69054;DHT22;56125;52.242;4.756;2024-02-14T07:53:53;18.10;56.20
69054;DHT22;56125;52.242;4.756;2024-02-14T07:58:54;18.00;56.80
69054;DHT22;56125;52.242;4.756;2024-02-14T08:03:55;18.10;56.40
69054;DHT22;56125;52.242;4.756;2024-02-14T08:08:56;18.10;56.90
69054;DHT22;56125;52.242;4.756;2024-02-14T08:14:02;18.10;57.00
69054;DHT22;56125;52.242;4.756;2024-02-14T08:19:04;18.10;56.50
69054;DHT22;56125;52.242;4.756;2024-02-14T08:24:05;18.10;57.60
69054;DHT22;56125;52.242;4.756;2024-02-14T08:29:06;18.10;56.70
69054;DHT22;56125;52.242;4.756;2024-02-14T08:34:07;18.10;57.10
69054;DHT22;56125;52.242;4.756;2024-02-14T08:39:10;18.10;56.50
69054;DHT22;56125;52.242;4.756;2024-02-14T08:44:11;18.10;57.00
69054;DHT22;56125;52.242;4.756;2024-02-14T08:49:12;18.10;57.10
69054;DHT22;56125;52.242;4.756;2024-02-14T08:54:13;18.20;57.00
69054;DHT22;56125;52.242;4.756;2024-02-14T08:59:16;18.20;57.10
69054;DHT22;56125;52.242;4.756;2024-02-14T09:04:17;18.20;57.90
69054;DHT22;56125;52.242;4.756;2024-02-14T09:09:18;18.20;58.20
69054;DHT22;56125;52.242;4.756;2024-02-14T09:14:20;18.20;57.70
69054;DHT22;56125;52.242;4.756;2024-02-14T09:19:21;18.20;57.50
69054;DHT22;56125;52.242;4.756;2024-02-14T09:24:22;18.30;57.70
69054;DHT22;56125;52.242;4.756;2024-02-14T09:29:23;18.30;57.40
69054;DHT22;56125;52.242;4.756;2024-02-14T09:34:24;18.30;57.60
69054;DHT22;56125;52.242;4.756;2024-02-14T09:39:26;18.30;57.20
69054;DHT22;56125;52.242;4.756;2024-02-14T09:44:28;18.30;57.60
69054;DHT22;56125;52.242;4.756;2024-02-14T09:49:32;18.40;57.40
69054;DHT22;56125;52.242;4.756;2024-02-14T09:54:36;18.40;57.70
69054;DHT22;56125;52.242;4.756;2024-02-14T09:59:40;18.40;57.30
69054;DHT22;56125;52.242;4.756;2024-02-14T10:04:41;18.40;57.70
69054;DHT22;56125;52.242;4.756;2024-02-14T10:09:42;18.50;57.30
69054;DHT22;56125;52.242;4.756;2024-02-14T10:14:44;18.40;57.80
69054;DHT22;56125;52.242;4.756;2024-02-14T10:20:06;18.40;57.20
69054;DHT22;56125;52.242;4.756;2024-02-14T10:25:08;18.40;58.00
69054;DHT22;56125;52.242;4.756;2024-02-14T10:30:09;18.50;57.60
69054;DHT22;56125;52.242;4.756;2024-02-14T10:35:11;18.50;57.70
69054;DHT22;56125;52.242;4.756;2024-02-14T10:40:14;18.50;57.60
69054;DHT22;56125;52.242;4.756;2024-02-14T10:45:15;18.50;57.60
69054;DHT22;56125;52.242;4.756;2024-02-14T10:50:17;18.50;57.30
69054;DHT22;56125;52.242;4.756;2024-02-14T10:55:20;18.50;57.90
69054;DHT22;56125;52.242;4.756;2024-02-14T11:00:24;18.60;57.30
69054;DHT22;56125;52.242;4.756;2024-02-14T11:05:25;18.50;57.60
69054;DHT22;56125;52.242;4.756;2024-02-14T11:10:27;18.00;58.00
69054;DHT22;56125;52.242;4.756;2024-02-14T11:15:28;18.50;57.40
69054;DHT22;56125;52.242;4.756;2024-02-14T11:20:33;18.50;56.80
69054;DHT22;56125;52.242;4.756;2024-02-14T11:25:35;18.50;57.50
69054;DHT22;56125;52.242;4.756;2024-02-14T11:30:36;18.50;56.60
69054;DHT22;56125;52.242;4.756;2024-02-14T11:35:42;18.50;57.30
69054;DHT22;56125;52.242;4.756;2024-02-14T11:40:44;18.50;57.70
69054;DHT22;56125;52.242;4.756;2024-02-14T11:45:46;18.50;57.10
69054;DHT22;56125;52.242;4.756;2024-02-14T11:50:53;18.50;57.10
69054;DHT22;56125;52.242;4.756;2024-02-14T11:55:55;18.10;56.60
69054;DHT22;56125;52.242;4.756;2024-02-14T12:00:57;18.50;56.60
69054;DHT22;56125;52.242;4.756;2024-02-14T12:05:58;18.50;56.60
69054;DHT22;56125;52.242;4.756;2024-02-14T12:10:59;18.50;57.10
69054;DHT22;56125;52.242;4.756;2024-02-14T12:16:00;18.50;57.40
69054;DHT22;56125;52.242;4.756;2024-02-14T12:21:05;18.50;57.30
69054;DHT22;56125;52.242;4.756;2024-02-14T12:26:09;18.50;57.30
69054;DHT22;56125;52.242;4.756;2024-02-14T12:31:24;18.50;57.60
69054;DHT22;56125;52.242;4.756;2024-02-14T12:36:27;18.50;57.80
69054;DHT22;56125;52.242;4.756;2024-02-14T12:41:29;18.50;57.70
69054;DHT22;56125;52.242;4.756;2024-02-14T12:46:30;18.50;58.20
69054;DHT22;56125;52.242;4.756;2024-02-14T12:51:32;18.40;58.20
69054;DHT22;56125;52.242;4.756;2024-02-14T12:56:33;18.50;57.90
69054;DHT22;56125;52.242;4.756;2024-02-14T13:01:34;18.50;58.80
69054;DHT22;56125;52.242;4.756;2024-02-14T13:06:36;18.50;60.00
69054;DHT22;56125;52.242;4.756;2024-02-14T13:11:38;19.30;61.20
69054;DHT22;56125;52.242;4.756;2024-02-14T13:16:39;18.60;61.60
69054;DHT22;56125;52.242;4.756;2024-02-14T13:21:40;18.70;61.70
69054;DHT22;56125;52.242;4.756;2024-02-14T13:26:46;18.80;61.90
69054;DHT22;56125;52.242;4.756;2024-02-14T13:31:47;18.90;61.60
69054;DHT22;56125;52.242;4.756;2024-02-14T13:36:48;18.90;61.10
69054;DHT22;56125;52.242;4.756;2024-02-14T13:41:49;18.90;61.10
69054;DHT22;56125;52.242;4.756;2024-02-14T13:46:50;18.90;62.00
69054;DHT22;56125;52.242;4.756;2024-02-14T13:51:53;19.00;61.40
69054;DHT22;56125;52.242;4.756;2024-02-14T13:56:54;18.30;60.50
69054;DHT22;56125;52.242;4.756;2024-02-14T14:01:57;18.90;61.20
69054;DHT22;56125;52.242;4.756;2024-02-14T14:06:58;18.90;62.20
69054;DHT22;56125;52.242;4.756;2024-02-14T14:12:00;18.30;61.90
69054;DHT22;56125;52.242;4.756;2024-02-14T14:17:02;19.00;62.20
69054;DHT22;56125;52.242;4.756;2024-02-14T14:22:03;19.00;62.10
69054;DHT22;56125;52.242;4.756;2024-02-14T14:27:04;19.00;61.70
69054;DHT22;56125;52.242;4.756;2024-02-14T14:32:08;19.00;61.50
69054;DHT22;56125;52.242;4.756;2024-02-14T14:37:10;19.00;61.30
69054;DHT22;56125;52.242;4.756;2024-02-14T14:42:11;19.00;61.00
69054;DHT22;56125;52.242;4.756;2024-02-14T14:47:12;19.90;60.80
69054;DHT22;56125;52.242;4.756;2024-02-14T14:52:14;19.00;61.10
69054;DHT22;56125;52.242;4.756;2024-02-14T14:57:15;18.90;61.20
69054;DHT22;56125;52.242;4.756;2024-02-14T15:02:16;18.90;61.20
69054;DHT22;56125;52.242;4.756;2024-02-14T15:07:17;18.90;61.30
69054;DHT22;56125;52.242;4.756;2024-02-14T15:12:21;18.90;61.10
69054;DHT22;56125;52.242;4.756;2024-02-14T15:17:26;18.90;60.80
69054;DHT22;56125;52.242;4.756;2024-02-14T15:22:29;18.90;60.60
69054;DHT22;56125;52.242;4.756;2024-02-14T15:27:31;18.90;60.80
69054;DHT22;56125;52.242;4.756;2024-02-14T15:32:33;18.90;60.50
69054;DHT22;56125;52.242;4.756;2024-02-14T15:37:53;18.90;60.40
69054;DHT22;56125;52.242;4.756;2024-02-14T15:42:54;18.90;60.40
69054;DHT22;56125;52.242;4.756;2024-02-14T15:47:55;18.90;60.20
69054;DHT22;56125;52.242;4.756;2024-02-14T15:52:58;18.90;60.20
69054;DHT22;56125;52.242;4.756;2024-02-14T15:57:59;18.90;60.20
69054;DHT22;56125;52.242;4.756;2024-02-14T16:03:01;18.80;60.70
69054;DHT22;56125;52.242;4.756;2024-02-14T16:08:02;18.90;59.90
69054;DHT22;56125;52.242;4.756;2024-02-14T16:13:03;18.70;59.60
69054;DHT22;56125;52.242;4.756;2024-02-14T16:18:05;18.90;59.60
69054;DHT22;56125;52.242;4.756;2024-02-14T16:23:06;18.90;59.80
69054;DHT22;56125;52.242;4.756;2024-02-14T16:28:07;18.90;59.60
69054;DHT22;56125;52.242;4.756;2024-02-14T16:33:08;18.90;59.50
69054;DHT22;56125;52.242;4.756;2024-02-14T16:38:09;18.90;59.50
69054;DHT22;56125;52.242;4.756;2024-02-14T16:43:10;18.90;59.50
69054;DHT22;56125;52.242;4.756;2024-02-14T16:48:11;18.80;59.30
69054;DHT22;56125;52.242;4.756;2024-02-14T16:53:12;18.80;59.40
69054;DHT22;56125;52.242;4.756;2024-02-14T16:58:13;18.90;59.40
69054;DHT22;56125;52.242;4.756;2024-02-14T17:03:15;18.80;59.40
69054;DHT22;56125;52.242;4.756;2024-02-14T17:08:16;18.90;59.40
69054;DHT22;56125;52.242;4.756;2024-02-14T17:13:17;18.90;59.20
69054;DHT22;56125;52.242;4.756;2024-02-14T17:18:18;18.90;59.20
69054;DHT22;56125;52.242;4.756;2024-02-14T17:23:19;19.80;59.80
69054;DHT22;56125;52.242;4.756;2024-02-14T17:28:20;18.80;59.30
69054;DHT22;56125;52.242;4.756;2024-02-14T17:33:21;18.80;59.40
69054;DHT22;56125;52.242;4.756;2024-02-14T17:38:22;18.80;59.30
69054;DHT22;56125;52.242;4.756;2024-02-14T17:43:24;18.70;59.30
69054;DHT22;56125;52.242;4.756;2024-02-14T17:48:25;18.80;59.30
69054;DHT22;56125;52.242;4.756;2024-02-14T17:53:28;18.80;59.20
69054;DHT22;56125;52.242;4.756;2024-02-14T17:58:30;18.80;59.20
69054;DHT22;56125;52.242;4.756;2024-02-14T18:03:32;18.80;59.20
69054;DHT22;56125;52.242;4.756;2024-02-14T18:08:33;18.80;59.30
69054;DHT22;56125;52.242;4.756;2024-02-14T18:13:34;18.70;59.20
69054;DHT22;56125;52.242;4.756;2024-02-14T18:18:35;18.70;59.20
69054;DHT22;56125;52.242;4.756;2024-02-14T18:23:42;18.70;59.20
69054;DHT22;56125;52.242;4.756;2024-02-14T18:28:43;18.70;59.20
69054;DHT22;56125;52.242;4.756;2024-02-14T18:33:44;18.70;59.20
69054;DHT22;56125;52.242;4.756;2024-02-14T18:38:45;18.70;59.20
69054;DHT22;56125;52.242;4.756;2024-02-14T18:43:46;18.70;59.20
69054;DHT22;56125;52.242;4.756;2024-02-14T18:48:48;18.70;59.20
69054;DHT22;56125;52.242;4.756;2024-02-14T18:53:49;18.70;59.20
69054;DHT22;56125;52.242;4.756;2024-02-14T18:58:51;18.70;59.00
69054;DHT22;56125;52.242;4.756;2024-02-14T19:03:53;18.70;59.10
69054;DHT22;56125;52.242;4.756;2024-02-14T19:08:57;18.70;59.10
69054;DHT22;56125;52.242;4.756;2024-02-14T19:13:58;18.70;59.10
69054;DHT22;56125;52.242;4.756;2024-02-14T19:18:59;18.70;59.10
69054;DHT22;56125;52.242;4.756;2024-02-14T19:24:00;18.70;59.10
69054;DHT22;56125;52.242;4.756;2024-02-14T19:29:01;18.70;59.20
69054;DHT22;56125;52.242;4.756;2024-02-14T19:34:02;18.60;60.00
69054;DHT22;56125;52.242;4.756;2024-02-14T19:39:05;18.70;59.10
69054;DHT22;56125;52.242;4.756;2024-02-14T19:44:06;18.70;59.40
69054;DHT22;56125;52.242;4.756;2024-02-14T19:49:07;18.60;59.20
69054;DHT22;56125;52.242;4.756;2024-02-14T19:54:10;18.60;59.20
69054;DHT22;56125;52.242;4.756;2024-02-14T19:59:13;18.60;59.30
69054;DHT22;56125;52.242;4.756;2024-02-14T20:04:14;18.60;59.20
69054;DHT22;56125;52.242;4.756;2024-02-14T20:09:15;18.60;59.30
69054;DHT22;56125;52.242;4.756;2024-02-14T20:14:16;18.60;60.30
69054;DHT22;56125;52.242;4.756;2024-02-14T20:19:17;18.60;59.20
69054;DHT22;56125;52.242;4.756;2024-02-14T20:24:19;18.60;59.30
69054;DHT22;56125;52.242;4.756;2024-02-14T20:29:20;18.60;59.20
69054;DHT22;56125;52.242;4.756;2024-02-14T20:34:22;18.60;59.30
69054;DHT22;56125;52.242;4.756;2024-02-14T20:39:24;18.50;59.20
69054;DHT22;56125;52.242;4.756;2024-02-14T20:44:25;18.60;59.20
69054;DHT22;56125;52.242;4.756;2024-02-14T20:49:26;18.60;59.20
69054;DHT22;56125;52.242;4.756;2024-02-14T20:54:30;18.60;59.70
69054;DHT22;56125;52.242;4.756;2024-02-14T20:59:31;18.60;59.20
69054;DHT22;56125;52.242;4.756;2024-02-14T21:04:33;18.60;59.20
69054;DHT22;56125;52.242;4.756;2024-02-14T21:09:34;18.50;59.20
69054;DHT22;56125;52.242;4.756;2024-02-14T21:14:36;18.60;59.30
69054;DHT22;56125;52.242;4.756;2024-02-14T21:19:37;18.50;59.20
69054;DHT22;56125;52.242;4.756;2024-02-14T21:24:38;18.50;59.30
69054;DHT22;56125;52.242;4.756;2024-02-14T21:29:40;18.60;59.30
69054;DHT22;56125;52.242;4.756;2024-02-14T21:34:41;18.60;59.30
69054;DHT22;56125;52.242;4.756;2024-02-14T21:39:42;18.50;59.30
69054;DHT22;56125;52.242;4.756;2024-02-14T21:44:43;18.50;59.20
69054;DHT22;56125;52.242;4.756;2024-02-14T21:49:44;18.60;59.30
69054;DHT22;56125;52.242;4.756;2024-02-14T21:54:46;18.60;59.40
69054;DHT22;56125;52.242;4.756;2024-02-14T21:59:47;18.60;59.30
69054;DHT22;56125;52.242;4.756;2024-02-14T22:04:48;18.60;59.30
69054;DHT22;56125;52.242;4.756;2024-02-14T22:09:50;18.60;59.30
69054;DHT22;56125;52.242;4.756;2024-02-14T22:14:51;18.60;59.50
69054;DHT22;56125;52.242;4.756;2024-02-14T22:19:56;18.60;59.30
69054;DHT22;56125;52.242;4.756;2024-02-14T22:24:57;18.60;59.40
69054;DHT22;56125;52.242;4.756;2024-02-14T22:29:58;18.60;59.30
69054;DHT22;56125;52.242;4.756;2024-02-14T22:34:59;18.60;59.20
69054;DHT22;56125;52.242;4.756;2024-02-14T22:40:00;18.60;59.20
69054;DHT22;56125;52.242;4.756;2024-02-14T22:45:01;18.60;59.40
69054;DHT22;56125;52.242;4.756;2024-02-14T22:50:06;18.60;60.10
69054;DHT22;56125;52.242;4.756;2024-02-14T22:55:08;18.60;59.30
69054;DHT22;56125;52.242;4.756;2024-02-14T23:00:11;18.70;59.10
69054;DHT22;56125;52.242;4.756;2024-02-14T23:05:15;18.50;59.90
69054;DHT22;56125;52.242;4.756;2024-02-14T23:10:20;18.60;59.30
69054;DHT22;56125;52.242;4.756;2024-02-14T23:15:22;18.70;58.90
69054;DHT22;56125;52.242;4.756;2024-02-14T23:20:23;18.70;59.30
69054;DHT22;56125;52.242;4.756;2024-02-14T23:25:24;18.70;59.10
69054;DHT22;56125;52.242;4.756;2024-02-14T23:30:25;18.70;59.40
69054;DHT22;56125;52.242;4.756;2024-02-14T23:35:27;18.70;59.20
69054;DHT22;56125;52.242;4.756;2024-02-14T23:40:28;18.70;59.20
69054;DHT22;56125;52.242;4.756;2024-02-14T23:45:29;18.70;59.30
69054;DHT22;56125;52.242;4.756;2024-02-14T23:50:31;18.80;59.20
69054;DHT22;56125;52.242;4.756;2024-02-14T23:55:32;18.80;59.40
